Hafnia Torres — 9V3283 — position and weather

sailwx.info

Track history (hours):
 
Tides and Currents Weather Stations Pressure Air Temp Water Temp Dewpoint Dewpoint Depression Visibility Wind Speed Wind Dir Waves Ship Positions

Hafnia Torres

Last reported at 2018-Feb-20 15:39 UTC. Time now 2018-Feb-21 05:50 UTC.
Position N 35°50' E 014°33'.

Length 184 m; draft 10.1 m.

Type: Tanker. MMSI: 566598000.

Date/timePositionNaut miles runAvg speedWind from/ knotsBaromVisibWave heightAir tempDewpointWater temp
2018-Feb-20 15:39N 35°50' E 014°33'0 2.9
2018-Feb-20 15:30N 35°49' E 014°33'2 4.2
2018-Feb-20 14:59N 35°48' E 014°35'0 0.4
2018-Feb-20 14:30N 35°48' E 014°36'1 2.1
2018-Feb-20 14:00N 35°47' E 014°37'0 0.4
2018-Feb-20 13:29N 35°47' E 014°36'0 0.2
2018-Feb-20 12:59N 35°47' E 014°36'0 0.6
2018-Feb-20 12:30N 35°47' E 014°36'1 2.9
2018-Feb-20 12:00N 35°48' E 014°38'2 4.7
2018-Feb-20 11:30N 35°48' E 014°41'3 6.5
2018-Feb-20 10:58N 35°48' E 014°45'4 8.2
2018-Feb-20 10:29N 35°49' E 014°50'3 5.9
2018-Feb-20 09:55N 35°51' E 014°54'0 0.1
2018-Feb-20 08:40N 35°50' E 014°54'0 0.0
2018-Feb-19 04:55N 35°51' E 014°54'0 0.0
2018-Feb-19 04:28N 35°51' E 014°54'0 0.0
2018-Feb-19 03:43N 35°51' E 014°54'0 0.1
2018-Feb-19 03:22N 35°51' E 014°54'0 0.0
2018-Feb-19 02:43N 35°51' E 014°54'0 0.0
2018-Feb-18 17:40N 35°51' E 014°54'0 0.0
2018-Feb-18 16:43N 35°51' E 014°54'0 0.0
2018-Feb-18 16:25N 35°51' E 014°54'1 0.0
2018-Feb-16 15:21N 35°52' E 014°53'511.8
2018-Feb-16 14:58N 35°56' E 014°51'1412.1
2018-Feb-16 13:50N 36°07' E 014°42'412.5
2018-Feb-16 13:30N 36°10' E 014°38'612.6
2018-Feb-16 13:01N 36°14' E 014°32'612.5
2018-Feb-16 12:30N 36°18' E 014°26'612.7
2018-Feb-16 12:00N 36°20' E 014°18'712.9
2018-Feb-16 11:29N 36°22' E 014°11'613.1
2018-Feb-16 11:01N 36°24' E 014°03'713.1
2018-Feb-16 10:30N 36°25' E 013°55'713.4
2018-Feb-16 10:00N 36°27' E 013°47'712.8
2018-Feb-16 09:30N 36°28' E 013°39'  
2018-Feb-13 09:23N 35°60' W 005°14'513.7
2018-Feb-13 09:00N 35°59' W 005°20'713.6
2018-Feb-13 08:30N 35°57' W 005°28'26610.6
2018-Feb-12 07:20N 38°24' W 010°07'412.5
2018-Feb-12 06:59N 38°28' W 010°08'712.6
2018-Feb-12 06:27N 38°35' W 010°10'612.8
2018-Feb-12 05:59N 38°41' W 010°12'613.3
2018-Feb-12 05:30N 38°47' W 010°12'713.0
2018-Feb-12 05:00N 38°54' W 010°12'612.8
2018-Feb-12 04:31N 39°00' W 010°12'612.6
2018-Feb-12 04:01N 39°06' W 010°12'812.6
2018-Feb-12 03:23N 39°14' W 010°12'  
Track history (hours):
 
Tides and Currents Weather Stations Pressure Air Temp Water Temp Dewpoint Dewpoint Depression Visibility Wind Speed Wind Dir Waves Ship Positions

Hafnia Torres

Last reported at 2018-Feb-20 15:39 UTC. Time now 2018-Feb-21 05:50 UTC.
Position N 35°50' E 014°33'.

Length 184 m; draft 10.1 m.

Type: Tanker. MMSI: 566598000.

Date/timePositionNaut miles runAvg speedWind from/ knotsBaromVisibWave heightAir tempDewpointWater temp
2018-Feb-20 15:39N 35°50' E 014°33'0 2.9
2018-Feb-20 15:30N 35°49' E 014°33'2 4.2
2018-Feb-20 14:59N 35°48' E 014°35'0 0.4
2018-Feb-20 14:30N 35°48' E 014°36'1 2.1
2018-Feb-20 14:00N 35°47' E 014°37'0 0.4
2018-Feb-20 13:29N 35°47' E 014°36'0 0.2
2018-Feb-20 12:59N 35°47' E 014°36'0 0.6
2018-Feb-20 12:30N 35°47' E 014°36'1 2.9
2018-Feb-20 12:00N 35°48' E 014°38'2 4.7
2018-Feb-20 11:30N 35°48' E 014°41'3 6.5
2018-Feb-20 10:58N 35°48' E 014°45'4 8.2
2018-Feb-20 10:29N 35°49' E 014°50'3 5.9
2018-Feb-20 09:55N 35°51' E 014°54'0 0.1
2018-Feb-20 08:40N 35°50' E 014°54'0 0.0
2018-Feb-19 04:55N 35°51' E 014°54'0 0.0
2018-Feb-19 04:28N 35°51' E 014°54'0 0.0
2018-Feb-19 03:43N 35°51' E 014°54'0 0.1
2018-Feb-19 03:22N 35°51' E 014°54'0 0.0
2018-Feb-19 02:43N 35°51' E 014°54'0 0.0
2018-Feb-18 17:40N 35°51' E 014°54'0 0.0
2018-Feb-18 16:43N 35°51' E 014°54'0 0.0
2018-Feb-18 16:25N 35°51' E 014°54'1 0.0
2018-Feb-16 15:21N 35°52' E 014°53'511.8
2018-Feb-16 14:58N 35°56' E 014°51'1412.1
2018-Feb-16 13:50N 36°07' E 014°42'412.5
2018-Feb-16 13:30N 36°10' E 014°38'612.6
2018-Feb-16 13:01N 36°14' E 014°32'612.5
2018-Feb-16 12:30N 36°18' E 014°26'612.7
2018-Feb-16 12:00N 36°20' E 014°18'712.9
2018-Feb-16 11:29N 36°22' E 014°11'613.1
2018-Feb-16 11:01N 36°24' E 014°03'713.1
2018-Feb-16 10:30N 36°25' E 013°55'713.4
2018-Feb-16 10:00N 36°27' E 013°47'712.8
2018-Feb-16 09:30N 36°28' E 013°39'  
2018-Feb-13 09:23N 35°60' W 005°14'513.7
2018-Feb-13 09:00N 35°59' W 005°20'713.6
2018-Feb-13 08:30N 35°57' W 005°28'26610.6
2018-Feb-12 07:20N 38°24' W 010°07'412.5
2018-Feb-12 06:59N 38°28' W 010°08'712.6
2018-Feb-12 06:27N 38°35' W 010°10'612.8
2018-Feb-12 05:59N 38°41' W 010°12'613.3
2018-Feb-12 05:30N 38°47' W 010°12'713.0
2018-Feb-12 05:00N 38°54' W 010°12'612.8
2018-Feb-12 04:31N 39°00' W 010°12'612.6
2018-Feb-12 04:01N 39°06' W 010°12'812.6
2018-Feb-12 03:23N 39°14' W 010°12'  

Dump ship's entire track history